sensor_id;sensor_type;location;lat;lon;timestamp;temperature;humidity
53926;DHT22;39836;52.754;6.866;2022-08-19T00:00:08;17.10;77.90
53926;DHT22;39836;52.754;6.866;2022-08-19T00:02:35;17.10;78.00
53926;DHT22;39836;52.754;6.866;2022-08-19T00:05:02;17.10;78.30
53926;DHT22;39836;52.754;6.866;2022-08-19T00:07:28;17.00;78.30
53926;DHT22;39836;52.754;6.866;2022-08-19T00:09:54;17.00;78.10
53926;DHT22;39836;52.754;6.866;2022-08-19T00:12:21;16.90;78.00
53926;DHT22;39836;52.754;6.866;2022-08-19T00:14:47;16.90;78.00
53926;DHT22;39836;52.754;6.866;2022-08-19T00:17:12;16.80;78.20
53926;DHT22;39836;52.754;6.866;2022-08-19T00:19:38;16.80;78.40
53926;DHT22;39836;52.754;6.866;2022-08-19T00:22:04;16.80;78.20
53926;DHT22;39836;52.754;6.866;2022-08-19T00:24:31;16.70;78.10
53926;DHT22;39836;52.754;6.866;2022-08-19T00:26:57;16.70;78.20
53926;DHT22;39836;52.754;6.866;2022-08-19T00:29:24;16.70;78.20
53926;DHT22;39836;52.754;6.866;2022-08-19T00:31:51;16.60;78.10
53926;DHT22;39836;52.754;6.866;2022-08-19T00:34:20;16.50;78.00
53926;DHT22;39836;52.754;6.866;2022-08-19T00:36:47;16.40;78.20
53926;DHT22;39836;52.754;6.866;2022-08-19T00:39:15;16.40;78.50
53926;DHT22;39836;52.754;6.866;2022-08-19T00:41:42;16.40;78.90
53926;DHT22;39836;52.754;6.866;2022-08-19T00:44:25;16.50;78.60
53926;DHT22;39836;52.754;6.866;2022-08-19T00:46:52;16.50;78.70
53926;DHT22;39836;52.754;6.866;2022-08-19T00:49:47;16.60;78.70
53926;DHT22;39836;52.754;6.866;2022-08-19T00:52:33;16.60;79.10
53926;DHT22;39836;52.754;6.866;2022-08-19T00:55:00;16.60;79.00
53926;DHT22;39836;52.754;6.866;2022-08-19T00:57:31;16.70;79.10
53926;DHT22;39836;52.754;6.866;2022-08-19T00:59:59;16.70;79.10
53926;DHT22;39836;52.754;6.866;2022-08-19T01:02:28;16.70;79.00
53926;DHT22;39836;52.754;6.866;2022-08-19T01:04:54;16.70;79.00
53926;DHT22;39836;52.754;6.866;2022-08-19T01:07:20;16.70;79.30
53926;DHT22;39836;52.754;6.866;2022-08-19T01:09:47;16.70;79.30
53926;DHT22;39836;52.754;6.866;2022-08-19T01:12:13;16.70;79.30
53926;DHT22;39836;52.754;6.866;2022-08-19T01:14:39;16.70;79.40
53926;DHT22;39836;52.754;6.866;2022-08-19T01:17:07;16.70;79.20
53926;DHT22;39836;52.754;6.866;2022-08-19T01:19:37;16.70;79.20
53926;DHT22;39836;52.754;6.866;2022-08-19T01:24:48;16.70;79.10
53926;DHT22;39836;52.754;6.866;2022-08-19T01:27:14;16.70;78.90
53926;DHT22;39836;52.754;6.866;2022-08-19T01:29:42;16.60;79.00
53926;DHT22;39836;52.754;6.866;2022-08-19T01:32:13;16.60;78.90
53926;DHT22;39836;52.754;6.866;2022-08-19T01:34:40;16.60;79.00
53926;DHT22;39836;52.754;6.866;2022-08-19T01:37:08;16.50;79.20
53926;DHT22;39836;52.754;6.866;2022-08-19T01:39:37;16.50;79.10
53926;DHT22;39836;52.754;6.866;2022-08-19T01:42:04;16.50;79.10
53926;DHT22;39836;52.754;6.866;2022-08-19T01:44:30;16.50;79.00
53926;DHT22;39836;52.754;6.866;2022-08-19T01:46:56;16.50;79.00
53926;DHT22;39836;52.754;6.866;2022-08-19T01:49:23;16.40;79.00
53926;DHT22;39836;52.754;6.866;2022-08-19T01:51:52;16.40;79.00
53926;DHT22;39836;52.754;6.866;2022-08-19T01:54:20;16.40;78.90
53926;DHT22;39836;52.754;6.866;2022-08-19T01:56:46;16.30;78.90
53926;DHT22;39836;52.754;6.866;2022-08-19T01:59:17;16.30;78.90
53926;DHT22;39836;52.754;6.866;2022-08-19T02:01:44;16.30;79.00
53926;DHT22;39836;52.754;6.866;2022-08-19T02:04:10;16.30;79.00
53926;DHT22;39836;52.754;6.866;2022-08-19T02:06:36;16.30;79.00
53926;DHT22;39836;52.754;6.866;2022-08-19T02:09:03;16.30;79.30
53926;DHT22;39836;52.754;6.866;2022-08-19T02:11:35;16.30;79.20
53926;DHT22;39836;52.754;6.866;2022-08-19T02:14:03;16.30;79.10
53926;DHT22;39836;52.754;6.866;2022-08-19T02:16:29;16.20;79.10
53926;DHT22;39836;52.754;6.866;2022-08-19T02:18:56;16.30;79.30
53926;DHT22;39836;52.754;6.866;2022-08-19T02:21:23;16.20;79.10
53926;DHT22;39836;52.754;6.866;2022-08-19T02:23:50;16.20;79.10
53926;DHT22;39836;52.754;6.866;2022-08-19T02:26:16;16.20;79.10
53926;DHT22;39836;52.754;6.866;2022-08-19T02:28:42;16.20;79.10
53926;DHT22;39836;52.754;6.866;2022-08-19T02:31:13;16.20;79.20
53926;DHT22;39836;52.754;6.866;2022-08-19T02:33:41;16.10;79.10
53926;DHT22;39836;52.754;6.866;2022-08-19T02:36:09;16.10;79.20
53926;DHT22;39836;52.754;6.866;2022-08-19T02:38:35;16.10;79.10
53926;DHT22;39836;52.754;6.866;2022-08-19T02:41:11;16.00;79.10
53926;DHT22;39836;52.754;6.866;2022-08-19T02:43:37;16.10;79.20
53926;DHT22;39836;52.754;6.866;2022-08-19T02:46:25;16.10;79.30
53926;DHT22;39836;52.754;6.866;2022-08-19T02:48:54;16.00;79.20
53926;DHT22;39836;52.754;6.866;2022-08-19T02:51:23;15.90;79.10
53926;DHT22;39836;52.754;6.866;2022-08-19T02:53:49;16.00;79.20
53926;DHT22;39836;52.754;6.866;2022-08-19T02:56:15;15.90;79.10
53926;DHT22;39836;52.754;6.866;2022-08-19T02:58:41;15.80;79.10
53926;DHT22;39836;52.754;6.866;2022-08-19T03:01:10;15.70;78.90
53926;DHT22;39836;52.754;6.866;2022-08-19T03:03:37;15.50;78.60
53926;DHT22;39836;52.754;6.866;2022-08-19T03:06:12;15.20;78.30
53926;DHT22;39836;52.754;6.866;2022-08-19T03:08:40;15.10;78.40
53926;DHT22;39836;52.754;6.866;2022-08-19T03:11:06;15.00;78.30
53926;DHT22;39836;52.754;6.866;2022-08-19T03:13:37;15.00;78.40
53926;DHT22;39836;52.754;6.866;2022-08-19T03:16:05;15.00;78.50
53926;DHT22;39836;52.754;6.866;2022-08-19T03:18:32;15.00;78.70
53926;DHT22;39836;52.754;6.866;2022-08-19T03:20:57;15.00;78.40
53926;DHT22;39836;52.754;6.866;2022-08-19T03:23:23;14.80;78.10
53926;DHT22;39836;52.754;6.866;2022-08-19T03:25:51;14.60;77.90
53926;DHT22;39836;52.754;6.866;2022-08-19T03:28:17;14.30;78.00
53926;DHT22;39836;52.754;6.866;2022-08-19T03:30:53;14.20;78.20
53926;DHT22;39836;52.754;6.866;2022-08-19T03:33:22;14.20;78.20
53926;DHT22;39836;52.754;6.866;2022-08-19T03:38:31;14.10;78.30
53926;DHT22;39836;52.754;6.866;2022-08-19T03:40:58;14.10;78.40
53926;DHT22;39836;52.754;6.866;2022-08-19T03:43:27;14.10;78.70
53926;DHT22;39836;52.754;6.866;2022-08-19T03:46:02;14.10;78.80
53926;DHT22;39836;52.754;6.866;2022-08-19T03:48:30;14.20;78.80
53926;DHT22;39836;52.754;6.866;2022-08-19T03:50:56;14.20;78.90
53926;DHT22;39836;52.754;6.866;2022-08-19T03:53:24;14.30;78.80
53926;DHT22;39836;52.754;6.866;2022-08-19T03:55:49;14.30;78.90
53926;DHT22;39836;52.754;6.866;2022-08-19T03:58:15;14.30;79.10
53926;DHT22;39836;52.754;6.866;2022-08-19T04:00:44;14.40;79.10
53926;DHT22;39836;52.754;6.866;2022-08-19T04:03:10;14.40;79.00
53926;DHT22;39836;52.754;6.866;2022-08-19T04:05:36;14.50;79.00
53926;DHT22;39836;52.754;6.866;2022-08-19T04:08:03;14.50;79.20
53926;DHT22;39836;52.754;6.866;2022-08-19T04:10:35;14.60;79.20
53926;DHT22;39836;52.754;6.866;2022-08-19T04:13:02;14.60;79.30
53926;DHT22;39836;52.754;6.866;2022-08-19T04:15:29;14.60;79.10
53926;DHT22;39836;52.754;6.866;2022-08-19T04:17:58;14.60;79.20
53926;DHT22;39836;52.754;6.866;2022-08-19T04:20:25;14.70;79.30
53926;DHT22;39836;52.754;6.866;2022-08-19T04:22:51;14.70;79.30
53926;DHT22;39836;52.754;6.866;2022-08-19T04:25:18;14.70;79.30
53926;DHT22;39836;52.754;6.866;2022-08-19T04:27:44;14.70;79.30
53926;DHT22;39836;52.754;6.866;2022-08-19T04:30:13;14.70;79.30
53926;DHT22;39836;52.754;6.866;2022-08-19T04:32:39;14.70;79.40
53926;DHT22;39836;52.754;6.866;2022-08-19T04:35:05;14.60;79.10
53926;DHT22;39836;52.754;6.866;2022-08-19T04:37:31;14.50;79.00
53926;DHT22;39836;52.754;6.866;2022-08-19T04:39:59;14.40;78.90
53926;DHT22;39836;52.754;6.866;2022-08-19T04:42:43;14.40;78.80
53926;DHT22;39836;52.754;6.866;2022-08-19T04:45:11;14.20;78.60
53926;DHT22;39836;52.754;6.866;2022-08-19T04:47:41;14.20;78.70
53926;DHT22;39836;52.754;6.866;2022-08-19T04:50:09;14.20;78.80
53926;DHT22;39836;52.754;6.866;2022-08-19T04:52:38;14.30;79.10
53926;DHT22;39836;52.754;6.866;2022-08-19T04:55:10;14.20;78.90
53926;DHT22;39836;52.754;6.866;2022-08-19T04:57:36;14.20;78.70
53926;DHT22;39836;52.754;6.866;2022-08-19T05:00:07;14.10;78.70
53926;DHT22;39836;52.754;6.866;2022-08-19T05:02:33;14.00;78.60
53926;DHT22;39836;52.754;6.866;2022-08-19T05:04:59;14.00;78.60
53926;DHT22;39836;52.754;6.866;2022-08-19T05:07:26;14.00;78.70
53926;DHT22;39836;52.754;6.866;2022-08-19T05:09:52;14.00;78.80
53926;DHT22;39836;52.754;6.866;2022-08-19T05:12:18;14.10;78.90
53926;DHT22;39836;52.754;6.866;2022-08-19T05:14:45;14.20;78.80
53926;DHT22;39836;52.754;6.866;2022-08-19T05:17:13;14.20;78.80
53926;DHT22;39836;52.754;6.866;2022-08-19T05:19:38;14.10;78.70
53926;DHT22;39836;52.754;6.866;2022-08-19T05:22:22;14.10;78.70
53926;DHT22;39836;52.754;6.866;2022-08-19T05:24:58;14.10;78.70
53926;DHT22;39836;52.754;6.866;2022-08-19T05:27:24;14.10;78.70
53926;DHT22;39836;52.754;6.866;2022-08-19T05:29:49;14.20;78.70
53926;DHT22;39836;52.754;6.866;2022-08-19T05:32:15;14.10;78.60
53926;DHT22;39836;52.754;6.866;2022-08-19T05:34:41;14.10;78.60
53926;DHT22;39836;52.754;6.866;2022-08-19T05:37:07;14.10;78.70
53926;DHT22;39836;52.754;6.866;2022-08-19T05:39:35;14.00;78.70
53926;DHT22;39836;52.754;6.866;2022-08-19T05:42:07;14.00;78.70
53926;DHT22;39836;52.754;6.866;2022-08-19T05:44:36;14.00;78.80
53926;DHT22;39836;52.754;6.866;2022-08-19T05:47:04;14.00;78.80
53926;DHT22;39836;52.754;6.866;2022-08-19T05:49:31;14.10;79.00
53926;DHT22;39836;52.754;6.866;2022-08-19T05:51:58;14.10;79.50
53926;DHT22;39836;52.754;6.866;2022-08-19T05:54:25;14.20;79.30
53926;DHT22;39836;52.754;6.866;2022-08-19T05:56:52;14.30;79.30
53926;DHT22;39836;52.754;6.866;2022-08-19T05:59:19;14.40;79.30
53926;DHT22;39836;52.754;6.866;2022-08-19T06:01:47;14.50;79.60
53926;DHT22;39836;52.754;6.866;2022-08-19T06:04:18;14.60;79.50
53926;DHT22;39836;52.754;6.866;2022-08-19T06:06:49;14.80;79.90
53926;DHT22;39836;52.754;6.866;2022-08-19T06:09:18;14.90;80.40
53926;DHT22;39836;52.754;6.866;2022-08-19T06:11:46;15.00;80.30
53926;DHT22;39836;52.754;6.866;2022-08-19T06:14:18;15.10;80.20
53926;DHT22;39836;52.754;6.866;2022-08-19T06:16:45;15.10;80.10
53926;DHT22;39836;52.754;6.866;2022-08-19T06:19:13;15.30;80.10
53926;DHT22;39836;52.754;6.866;2022-08-19T06:21:43;15.40;80.10
53926;DHT22;39836;52.754;6.866;2022-08-19T06:24:13;15.50;80.40
53926;DHT22;39836;52.754;6.866;2022-08-19T06:26:43;15.60;80.30
53926;DHT22;39836;52.754;6.866;2022-08-19T06:29:11;15.80;80.40
53926;DHT22;39836;52.754;6.866;2022-08-19T06:31:37;15.90;80.20
53926;DHT22;39836;52.754;6.866;2022-08-19T06:34:05;16.00;80.30
53926;DHT22;39836;52.754;6.866;2022-08-19T06:36:43;16.10;80.30
53926;DHT22;39836;52.754;6.866;2022-08-19T06:39:16;16.20;80.40
53926;DHT22;39836;52.754;6.866;2022-08-19T06:41:45;16.30;80.50
53926;DHT22;39836;52.754;6.866;2022-08-19T06:44:11;16.40;80.50
53926;DHT22;39836;52.754;6.866;2022-08-19T06:46:38;16.60;80.60
53926;DHT22;39836;52.754;6.866;2022-08-19T06:49:05;16.70;80.70
53926;DHT22;39836;52.754;6.866;2022-08-19T06:51:31;16.80;80.70
53926;DHT22;39836;52.754;6.866;2022-08-19T06:53:58;16.90;80.70
53926;DHT22;39836;52.754;6.866;2022-08-19T06:56:30;17.00;80.80
53926;DHT22;39836;52.754;6.866;2022-08-19T06:59:06;17.20;80.90
53926;DHT22;39836;52.754;6.866;2022-08-19T07:01:58;17.30;80.90
53926;DHT22;39836;52.754;6.866;2022-08-19T07:04:28;17.40;81.00
53926;DHT22;39836;52.754;6.866;2022-08-19T07:07:14;17.60;81.00
53926;DHT22;39836;52.754;6.866;2022-08-19T07:09:43;17.70;81.10
53926;DHT22;39836;52.754;6.866;2022-08-19T07:12:11;17.90;81.20
53926;DHT22;39836;52.754;6.866;2022-08-19T07:14:40;18.00;81.20
53926;DHT22;39836;52.754;6.866;2022-08-19T07:17:07;18.10;81.10
53926;DHT22;39836;52.754;6.866;2022-08-19T07:19:34;18.20;81.00
53926;DHT22;39836;52.754;6.866;2022-08-19T07:22:02;18.30;80.90
53926;DHT22;39836;52.754;6.866;2022-08-19T07:24:29;18.30;80.90
53926;DHT22;39836;52.754;6.866;2022-08-19T07:26:57;18.40;80.90
53926;DHT22;39836;52.754;6.866;2022-08-19T07:29:26;18.50;80.90
53926;DHT22;39836;52.754;6.866;2022-08-19T07:31:53;18.50;80.80
53926;DHT22;39836;52.754;6.866;2022-08-19T07:34:22;18.60;80.80
53926;DHT22;39836;52.754;6.866;2022-08-19T07:36:48;18.60;80.70
53926;DHT22;39836;52.754;6.866;2022-08-19T07:39:17;18.60;80.70
53926;DHT22;39836;52.754;6.866;2022-08-19T07:41:44;18.70;80.80
53926;DHT22;39836;52.754;6.866;2022-08-19T07:44:11;18.70;80.70
53926;DHT22;39836;52.754;6.866;2022-08-19T07:46:40;18.70;80.70
53926;DHT22;39836;52.754;6.866;2022-08-19T07:49:07;18.80;80.80
53926;DHT22;39836;52.754;6.866;2022-08-19T07:51:38;18.90;80.90
53926;DHT22;39836;52.754;6.866;2022-08-19T07:54:04;19.00;80.90
53926;DHT22;39836;52.754;6.866;2022-08-19T07:56:30;19.00;80.80
53926;DHT22;39836;52.754;6.866;2022-08-19T07:58:56;19.20;80.90
53926;DHT22;39836;52.754;6.866;2022-08-19T08:01:25;19.40;80.90
53926;DHT22;39836;52.754;6.866;2022-08-19T08:03:52;19.40;80.90
53926;DHT22;39836;52.754;6.866;2022-08-19T08:06:37;19.60;80.90
53926;DHT22;39836;52.754;6.866;2022-08-19T08:09:36;19.70;80.80
53926;DHT22;39836;52.754;6.866;2022-08-19T08:12:09;19.90;80.70
53926;DHT22;39836;52.754;6.866;2022-08-19T08:14:46;20.00;80.60
53926;DHT22;39836;52.754;6.866;2022-08-19T08:17:18;20.10;80.50
53926;DHT22;39836;52.754;6.866;2022-08-19T08:19:48;20.30;80.40
53926;DHT22;39836;52.754;6.866;2022-08-19T08:22:18;20.50;80.30
53926;DHT22;39836;52.754;6.866;2022-08-19T08:25:05;20.60;80.20
53926;DHT22;39836;52.754;6.866;2022-08-19T08:27:31;20.80;80.00
53926;DHT22;39836;52.754;6.866;2022-08-19T08:30:00;20.90;79.80
53926;DHT22;39836;52.754;6.866;2022-08-19T08:32:26;21.00;79.80
53926;DHT22;39836;52.754;6.866;2022-08-19T08:34:52;21.10;79.70
53926;DHT22;39836;52.754;6.866;2022-08-19T08:37:18;21.20;79.60
53926;DHT22;39836;52.754;6.866;2022-08-19T08:39:44;21.40;79.60
53926;DHT22;39836;52.754;6.866;2022-08-19T08:42:21;21.50;79.40
53926;DHT22;39836;52.754;6.866;2022-08-19T08:44:59;21.60;79.20
53926;DHT22;39836;52.754;6.866;2022-08-19T08:47:29;21.70;79.10
53926;DHT22;39836;52.754;6.866;2022-08-19T08:50:36;21.90;79.00
53926;DHT22;39836;52.754;6.866;2022-08-19T08:53:03;22.00;78.70
53926;DHT22;39836;52.754;6.866;2022-08-19T08:55:31;22.10;78.60
53926;DHT22;39836;52.754;6.866;2022-08-19T08:58:12;22.20;78.40
53926;DHT22;39836;52.754;6.866;2022-08-19T09:00:44;22.30;78.20
53926;DHT22;39836;52.754;6.866;2022-08-19T09:03:24;22.40;78.00
53926;DHT22;39836;52.754;6.866;2022-08-19T09:06:06;22.50;77.90
53926;DHT22;39836;52.754;6.866;2022-08-19T09:08:58;22.60;77.70
53926;DHT22;39836;52.754;6.866;2022-08-19T09:16:40;23.20;77.10
53926;DHT22;39836;52.754;6.866;2022-08-19T09:19:08;23.30;77.00
53926;DHT22;39836;52.754;6.866;2022-08-19T09:21:34;23.40;77.00
53926;DHT22;39836;52.754;6.866;2022-08-19T09:24:01;23.40;76.60
53926;DHT22;39836;52.754;6.866;2022-08-19T09:26:27;23.50;76.60
53926;DHT22;39836;52.754;6.866;2022-08-19T09:28:53;23.50;76.30
53926;DHT22;39836;52.754;6.866;2022-08-19T09:31:25;23.60;76.50
53926;DHT22;39836;52.754;6.866;2022-08-19T09:33:52;23.60;75.20
53926;DHT22;39836;52.754;6.866;2022-08-19T09:36:24;23.70;75.50
53926;DHT22;39836;52.754;6.866;2022-08-19T09:38:52;23.80;75.10
53926;DHT22;39836;52.754;6.866;2022-08-19T09:41:20;23.90;74.90
53926;DHT22;39836;52.754;6.866;2022-08-19T09:43:48;24.00;74.40
53926;DHT22;39836;52.754;6.866;2022-08-19T09:46:18;24.10;74.10
53926;DHT22;39836;52.754;6.866;2022-08-19T09:48:44;24.20;74.10
53926;DHT22;39836;52.754;6.866;2022-08-19T09:51:16;24.30;74.10
53926;DHT22;39836;52.754;6.866;2022-08-19T09:53:44;24.30;74.20
53926;DHT22;39836;52.754;6.866;2022-08-19T09:56:10;24.40;74.30
53926;DHT22;39836;52.754;6.866;2022-08-19T09:58:37;24.50;74.30
53926;DHT22;39836;52.754;6.866;2022-08-19T10:01:05;24.60;73.50
53926;DHT22;39836;52.754;6.866;2022-08-19T10:03:33;24.60;73.50
53926;DHT22;39836;52.754;6.866;2022-08-19T10:06:01;24.60;73.50
53926;DHT22;39836;52.754;6.866;2022-08-19T10:08:33;24.60;73.60
53926;DHT22;39836;52.754;6.866;2022-08-19T10:11:00;24.80;73.50
53926;DHT22;39836;52.754;6.866;2022-08-19T10:13:28;24.80;73.30
53926;DHT22;39836;52.754;6.866;2022-08-19T10:15:56;25.00;73.30
53926;DHT22;39836;52.754;6.866;2022-08-19T10:18:23;25.00;73.20
53926;DHT22;39836;52.754;6.866;2022-08-19T10:20:51;25.10;72.90
53926;DHT22;39836;52.754;6.866;2022-08-19T10:23:20;25.20;72.80
53926;DHT22;39836;52.754;6.866;2022-08-19T10:25:46;25.20;72.90
53926;DHT22;39836;52.754;6.866;2022-08-19T10:28:12;25.30;73.00
53926;DHT22;39836;52.754;6.866;2022-08-19T10:30:38;25.40;72.80
53926;DHT22;39836;52.754;6.866;2022-08-19T10:33:05;25.50;72.50
53926;DHT22;39836;52.754;6.866;2022-08-19T10:35:31;25.50;72.80
53926;DHT22;39836;52.754;6.866;2022-08-19T10:37:57;25.70;72.60
53926;DHT22;39836;52.754;6.866;2022-08-19T10:40:25;25.80;72.50
53926;DHT22;39836;52.754;6.866;2022-08-19T10:42:52;25.90;72.40
53926;DHT22;39836;52.754;6.866;2022-08-19T10:45:18;26.00;72.00
53926;DHT22;39836;52.754;6.866;2022-08-19T10:47:44;25.80;72.00
53926;DHT22;39836;52.754;6.866;2022-08-19T10:50:09;25.80;72.00
53926;DHT22;39836;52.754;6.866;2022-08-19T10:52:53;25.70;71.20
53926;DHT22;39836;52.754;6.866;2022-08-19T10:55:21;25.80;71.40
53926;DHT22;39836;52.754;6.866;2022-08-19T10:58:15;26.00;71.60
53926;DHT22;39836;52.754;6.866;2022-08-19T11:00:41;26.10;71.60
53926;DHT22;39836;52.754;6.866;2022-08-19T11:03:08;26.10;71.40
53926;DHT22;39836;52.754;6.866;2022-08-19T11:05:34;26.10;71.10
53926;DHT22;39836;52.754;6.866;2022-08-19T11:07:59;25.90;71.20
53926;DHT22;39836;52.754;6.866;2022-08-19T11:10:25;25.80;71.20
53926;DHT22;39836;52.754;6.866;2022-08-19T11:12:51;26.00;71.50
53926;DHT22;39836;52.754;6.866;2022-08-19T11:15:20;26.20;71.40
53926;DHT22;39836;52.754;6.866;2022-08-19T11:17:46;26.30;71.30
53926;DHT22;39836;52.754;6.866;2022-08-19T11:20:13;26.30;71.10
53926;DHT22;39836;52.754;6.866;2022-08-19T11:22:40;26.40;71.30
53926;DHT22;39836;52.754;6.866;2022-08-19T11:25:07;26.50;70.90
53926;DHT22;39836;52.754;6.866;2022-08-19T11:27:33;26.30;70.30
53926;DHT22;39836;52.754;6.866;2022-08-19T11:29:59;26.20;70.30
53926;DHT22;39836;52.754;6.866;2022-08-19T11:32:26;26.30;70.50
53926;DHT22;39836;52.754;6.866;2022-08-19T11:34:52;26.40;70.40
53926;DHT22;39836;52.754;6.866;2022-08-19T11:37:17;26.40;70.30
53926;DHT22;39836;52.754;6.866;2022-08-19T11:39:43;26.30;70.20
53926;DHT22;39836;52.754;6.866;2022-08-19T11:42:09;26.10;70.30
53926;DHT22;39836;52.754;6.866;2022-08-19T11:44:57;26.20;70.40
53926;DHT22;39836;52.754;6.866;2022-08-19T11:47:23;26.30;70.30
53926;DHT22;39836;52.754;6.866;2022-08-19T11:49:49;26.20;70.40
53926;DHT22;39836;52.754;6.866;2022-08-19T11:52:15;26.10;70.30
53926;DHT22;39836;52.754;6.866;2022-08-19T11:54:40;26.00;70.30
53926;DHT22;39836;52.754;6.866;2022-08-19T11:57:06;26.00;70.10
53926;DHT22;39836;52.754;6.866;2022-08-19T11:59:32;26.30;70.20
53926;DHT22;39836;52.754;6.866;2022-08-19T12:01:57;26.60;70.30
53926;DHT22;39836;52.754;6.866;2022-08-19T12:04:24;26.90;70.20
53926;DHT22;39836;52.754;6.866;2022-08-19T12:06:50;27.10;70.00
53926;DHT22;39836;52.754;6.866;2022-08-19T12:09:15;27.20;70.00
53926;DHT22;39836;52.754;6.866;2022-08-19T12:11:42;27.20;69.60
53926;DHT22;39836;52.754;6.866;2022-08-19T12:14:13;27.30;69.70
53926;DHT22;39836;52.754;6.866;2022-08-19T12:16:39;27.30;69.60
53926;DHT22;39836;52.754;6.866;2022-08-19T12:19:07;27.10;69.40
53926;DHT22;39836;52.754;6.866;2022-08-19T12:21:34;26.90;69.10
53926;DHT22;39836;52.754;6.866;2022-08-19T12:24:02;26.70;69.30
53926;DHT22;39836;52.754;6.866;2022-08-19T12:26:29;26.50;69.20
53926;DHT22;39836;52.754;6.866;2022-08-19T12:28:55;26.40;69.30
53926;DHT22;39836;52.754;6.866;2022-08-19T12:31:21;26.30;69.50
53926;DHT22;39836;52.754;6.866;2022-08-19T12:33:47;26.40;69.80
53926;DHT22;39836;52.754;6.866;2022-08-19T12:36:14;26.70;69.80
53926;DHT22;39836;52.754;6.866;2022-08-19T12:38:41;27.20;69.60
53926;DHT22;39836;52.754;6.866;2022-08-19T12:41:10;27.50;69.50
53926;DHT22;39836;52.754;6.866;2022-08-19T12:43:36;27.70;68.80
53926;DHT22;39836;52.754;6.866;2022-08-19T12:46:06;27.90;68.60
53926;DHT22;39836;52.754;6.866;2022-08-19T12:48:32;28.10;68.60
53926;DHT22;39836;52.754;6.866;2022-08-19T12:50:58;28.40;68.50
53926;DHT22;39836;52.754;6.866;2022-08-19T12:53:24;28.60;68.30
53926;DHT22;39836;52.754;6.866;2022-08-19T12:55:57;28.80;67.60
53926;DHT22;39836;52.754;6.866;2022-08-19T12:58:25;29.10;67.80
53926;DHT22;39836;52.754;6.866;2022-08-19T13:00:51;29.30;67.60
53926;DHT22;39836;52.754;6.866;2022-08-19T13:03:17;29.40;67.20
53926;DHT22;39836;52.754;6.866;2022-08-19T13:05:43;29.40;67.20
53926;DHT22;39836;52.754;6.866;2022-08-19T13:08:08;29.00;67.30
53926;DHT22;39836;52.754;6.866;2022-08-19T13:10:35;28.80;67.40
53926;DHT22;39836;52.754;6.866;2022-08-19T13:13:07;28.60;67.30
53926;DHT22;39836;52.754;6.866;2022-08-19T13:15:35;28.50;67.20
53926;DHT22;39836;52.754;6.866;2022-08-19T13:18:01;28.50;67.20
53926;DHT22;39836;52.754;6.866;2022-08-19T13:20:27;28.60;66.60
53926;DHT22;39836;52.754;6.866;2022-08-19T13:22:54;28.70;66.80
53926;DHT22;39836;52.754;6.866;2022-08-19T13:25:20;28.80;66.70
53926;DHT22;39836;52.754;6.866;2022-08-19T13:27:47;29.00;66.40
53926;DHT22;39836;52.754;6.866;2022-08-19T13:30:15;29.00;65.80
53926;DHT22;39836;52.754;6.866;2022-08-19T13:32:59;29.00;66.10
53926;DHT22;39836;52.754;6.866;2022-08-19T13:38:12;29.00;65.50
53926;DHT22;39836;52.754;6.866;2022-08-19T13:40:39;28.90;65.50
53926;DHT22;39836;52.754;6.866;2022-08-19T13:43:06;28.80;65.40
53926;DHT22;39836;52.754;6.866;2022-08-19T13:45:33;28.70;65.70
53926;DHT22;39836;52.754;6.866;2022-08-19T13:48:00;28.60;65.70
53926;DHT22;39836;52.754;6.866;2022-08-19T13:50:29;28.50;65.60
53926;DHT22;39836;52.754;6.866;2022-08-19T13:52:56;28.50;65.60
53926;DHT22;39836;52.754;6.866;2022-08-19T13:55:23;28.50;65.90
53926;DHT22;39836;52.754;6.866;2022-08-19T13:57:53;28.50;66.00
53926;DHT22;39836;52.754;6.866;2022-08-19T14:00:21;28.60;66.10
53926;DHT22;39836;52.754;6.866;2022-08-19T14:02:51;28.60;65.40
53926;DHT22;39836;52.754;6.866;2022-08-19T14:05:18;28.50;65.40
53926;DHT22;39836;52.754;6.866;2022-08-19T14:07:44;28.40;65.50
53926;DHT22;39836;52.754;6.866;2022-08-19T14:10:11;28.40;65.10
53926;DHT22;39836;52.754;6.866;2022-08-19T14:12:38;28.50;65.20
53926;DHT22;39836;52.754;6.866;2022-08-19T14:15:06;28.40;65.30
53926;DHT22;39836;52.754;6.866;2022-08-19T14:17:32;28.40;65.40
53926;DHT22;39836;52.754;6.866;2022-08-19T14:20:04;28.60;65.40
53926;DHT22;39836;52.754;6.866;2022-08-19T14:22:34;28.80;65.70
53926;DHT22;39836;52.754;6.866;2022-08-19T14:25:00;29.00;65.70
53926;DHT22;39836;52.754;6.866;2022-08-19T14:27:26;29.10;65.60
53926;DHT22;39836;52.754;6.866;2022-08-19T14:29:52;29.20;65.50
53926;DHT22;39836;52.754;6.866;2022-08-19T14:32:18;29.30;65.20
53926;DHT22;39836;52.754;6.866;2022-08-19T14:34:44;29.40;64.80
53926;DHT22;39836;52.754;6.866;2022-08-19T14:37:13;29.60;64.60
53926;DHT22;39836;52.754;6.866;2022-08-19T14:39:40;29.90;64.40
53926;DHT22;39836;52.754;6.866;2022-08-19T14:42:07;30.20;64.50
53926;DHT22;39836;52.754;6.866;2022-08-19T14:44:34;30.20;64.30
53926;DHT22;39836;52.754;6.866;2022-08-19T14:46:59;30.10;64.30
53926;DHT22;39836;52.754;6.866;2022-08-19T14:49:25;29.80;64.10
53926;DHT22;39836;52.754;6.866;2022-08-19T14:51:51;29.70;64.30
53926;DHT22;39836;52.754;6.866;2022-08-19T14:54:17;29.60;64.40
53926;DHT22;39836;52.754;6.866;2022-08-19T14:56:42;29.60;64.50
53926;DHT22;39836;52.754;6.866;2022-08-19T14:59:08;29.50;64.70
53926;DHT22;39836;52.754;6.866;2022-08-19T15:01:34;29.80;64.80
53926;DHT22;39836;52.754;6.866;2022-08-19T15:04:02;30.00;64.50
53926;DHT22;39836;52.754;6.866;2022-08-19T15:06:28;29.80;64.50
53926;DHT22;39836;52.754;6.866;2022-08-19T15:08:54;29.80;64.10
53926;DHT22;39836;52.754;6.866;2022-08-19T15:11:24;30.10;63.80
53926;DHT22;39836;52.754;6.866;2022-08-19T15:13:54;30.10;63.70
53926;DHT22;39836;52.754;6.866;2022-08-19T15:16:20;29.80;63.80
53926;DHT22;39836;52.754;6.866;2022-08-19T15:18:50;29.50;63.90
53926;DHT22;39836;52.754;6.866;2022-08-19T15:21:16;29.30;64.10
53926;DHT22;39836;52.754;6.866;2022-08-19T15:23:43;29.20;64.60
53926;DHT22;39836;52.754;6.866;2022-08-19T15:26:09;28.90;65.10
53926;DHT22;39836;52.754;6.866;2022-08-19T15:28:36;28.60;65.50
53926;DHT22;39836;52.754;6.866;2022-08-19T15:31:03;28.30;65.90
53926;DHT22;39836;52.754;6.866;2022-08-19T15:33:34;28.00;66.30
53926;DHT22;39836;52.754;6.866;2022-08-19T15:36:05;27.70;66.40
53926;DHT22;39836;52.754;6.866;2022-08-19T15:38:32;27.50;66.70
53926;DHT22;39836;52.754;6.866;2022-08-19T15:41:00;27.40;66.90
53926;DHT22;39836;52.754;6.866;2022-08-19T15:43:47;27.20;66.80
53926;DHT22;39836;52.754;6.866;2022-08-19T15:46:17;27.10;66.80
53926;DHT22;39836;52.754;6.866;2022-08-19T15:48:43;26.90;67.00
53926;DHT22;39836;52.754;6.866;2022-08-19T15:51:09;26.80;67.00